Latest Weather Observations for Goulburn Airport

IDN60801

Issued at 2:02 pm EST Wednesday 5 August 2015 (issued every 30 minutes, with the page automatically refreshed every 10 minutes)

About weather observations | Map of weather stations | Latest weather observations for NSW | Other Formats
Station Details ID: 070330 Name: GOULBURN AIRPORT AWS Lat: -34.81 Lon: 149.73 Height: 640.0 m
Data from the previous 72 hours. | See also: Recent months at Goulburn Airport
Date/Time
EST
Temp
°C
App
Temp
°C
Dew
Point
Rel
Hum
%
Delta-T
°C
Wind Press
QNH
hPa
Press
MSL
hPa
Rain
since 9 am
mm
Dir
 
Spd
km/h
Gust
km/h
Spd
kts
Gust
kts
05/02:00pm 6.0 -2.1 3.5 84 1.1 WNW 35 52 19 28 1010.2 1010.9 0.0
05/01:55pm 6.0 -2.9 3.0 81 1.3 WNW 39 57 21 31 1010.3 1011.0 0.0
05/01:30pm 6.9 -2.5 2.6 74 1.9 WNW 41 57 22 31 1010.0 1010.6 0.0
05/01:26pm 6.7 -1.9 2.6 75 1.8 WNW 37 57 20 31 1009.9 1010.5 0.0
05/01:00pm 6.6 -1.5 3.2 79 1.5 WNW 35 50 19 27 1010.4 1011.1 0.0
05/12:30pm 6.8 -1.5 2.1 72 2.0 WNW 35 52 19 28 1011.0 1011.7 0.0
05/12:00pm 5.7 -2.2 2.0 77 1.6 NW 33 43 18 23 1012.0 1012.7 0.0
05/11:30am 5.4 -1.6 2.2 80 1.3 WNW 28 37 15 20 1012.7 1013.4 0.0
05/11:00am 5.0 -2.7 2.5 84 1.1 WNW 32 46 17 25 1013.0 1013.8 0.0
05/10:30am 4.8 -2.9 2.2 83 1.1 NW 32 41 17 22 1012.8 1013.6 0.0
05/10:00am 4.1 -5.8 1.5 83 1.1 WNW 43 61 23 33 1013.4 1014.1 0.0
05/09:52am 4.1 -6.8 1.3 82 1.1 WNW 48 61 26 33 1013.0 1013.8 0.0
05/09:30am 3.7 -2.2 1.4 85 0.9 NW 22 43 12 23 1013.1 1013.9 0.0
05/09:00am 3.4 -3.0 1.1 85 0.9 WNW 24 33 13 18 1013.6 1014.3 0.0
05/08:30am 3.1 -4.1 1.0 86 0.8 WNW 28 41 15 22 1013.8 1014.5 0.0
05/08:00am 2.7 -3.3 0.9 88 0.7 WNW 22 39 12 21 1013.9 1014.6 0.0
05/07:30am 2.1 -5.1 0.6 90 0.6 NW 28 41 15 22 1014.0 1014.7 0.0
05/07:00am 1.8 -4.7 0.0 88 0.7 WNW 24 35 13 19 1013.9 1014.6 0.0
05/06:30am 2.3 -6.9 -1.0 79 1.2 WNW 37 46 20 25 1013.8 1014.5 0.0
05/06:01am 2.1 -7.5 -1.3 78 1.3 WNW 39 50 21 27 1013.8 1014.5 0.0
05/06:00am 2.2 -7.4 -1.4 77 1.3 WNW 39 50 21 27 1013.8 1014.5 0.0
05/05:30am 2.2 -8.2 -1.6 76 1.4 WNW 43 57 23 31 1013.9 1014.6 0.0
05/05:02am 1.8 -7.9 -2.0 76 1.4 W 39 57 21 31 1013.9 1014.6 0.0
05/05:00am 1.7 -7.6 -2.1 76 1.4 W 37 54 20 29 1013.9 1014.6 0.0
05/04:30am 1.6 -7.0 -2.9 72 1.6 WNW 33 44 18 24 1013.9 1014.6 0.0
05/04:00am 1.7 -5.2 -2.8 72 1.6 WNW 24 35 13 19 1014.3 1015.1 0.0
05/03:30am 1.6 -4.3 -2.5 74 1.5 WNW 19 26 10 14 1015.0 1015.7 0.0
05/03:00am 2.1 -4.0 -2.4 72 1.6 WNW 20 28 11 15 1015.4 1016.1 0.0
05/02:30am 2.3 -5.7 -2.6 70 1.8 W 30 39 16 21 1015.6 1016.4 0.0
05/02:00am 1.9 -7.1 -3.0 70 1.7 W 35 50 19 27 1015.7 1016.5 0.0
05/01:30am 2.2 -6.8 -2.9 69 1.8 WNW 35 50 19 27 1015.9 1016.7 0.0
05/01:00am 1.8 -5.9 -3.3 69 1.8 WNW 28 43 15 23 1016.3 1017.1 0.0
05/12:32am 1.8 -8.8 -3.5 68 2.0 WNW 43 59 23 32 1016.0 1016.8 0.0
05/12:30am 1.9 -8.7 -3.4 68 1.9 WNW 43 59 23 32 1015.9 1016.7 0.0
05/12:00am 1.8 -6.9 -3.5 68 2.0 W 33 56 18 30 1017.0 1017.8 0.0
 
Date/Time
EST
Temp
°C
App
Temp
°C
Dew
Point
Rel
Hum
%
Delta-T
°C
Wind Press
QNH
hPa
Press
MSL
hPa
Rain
since 9 am
mm
Dir
 
Spd
km/h
Gust
km/h
Spd
kts
Gust
kts
04/11:37pm 1.8 -7.7 -3.5 68 2.0 WNW 37 56 20 30 1016.0 1016.8 0.0
04/11:30pm 2.0 -6.5 -3.3 68 1.9 WNW 32 44 17 24 1016.8 1017.6 0.0
04/11:12pm 2.1 -7.3 -3.0 69 1.8 WNW 37 56 20 30 1017.3 1018.1 0.0
04/11:00pm 2.1 -7.7 -2.8 70 1.7 WNW 39 50 21 27 1017.2 1018.0 0.0
04/10:30pm 2.1 -7.3 -2.6 71 1.7 WNW 37 46 20 25 1017.4 1018.2 0.0
04/10:00pm 1.7 -7.1 -1.4 80 1.1 WNW 35 48 19 26 1017.9 1018.7 0.0
04/09:44pm 2.1 -6.4 -1.7 76 1.4 WNW 33 54 18 29 1018.0 1018.8 0.0
04/09:30pm 2.5 -5.5 -2.0 72 1.6 WNW 30 43 16 23 1018.0 1018.8 0.0
04/09:00pm 2.7 -5.0 -2.8 67 2.0 WNW 28 43 15 23 1018.3 1019.1 0.0
04/08:41pm 2.8 -5.7 -3.1 65 2.1 WNW 32 50 17 27 1018.3 1019.1 0.0
04/08:30pm 2.8 -5.3 -2.9 66 2.0 WNW 30 41 16 22 1018.5 1019.3 0.0
04/08:00pm 2.7 -5.1 -3.4 64 2.2 WNW 28 39 15 21 1018.8 1019.6 0.0
04/07:30pm 2.9 -2.7 -3.0 65 2.1 WNW 17 28 9 15 1018.8 1019.6 0.0
04/07:00pm 3.2 -2.9 -2.7 65 2.1 WNW 20 32 11 17 1018.9 1019.7 0.0
04/06:30pm 3.3 -2.9 -2.8 64 2.2 WNW 20 28 11 15 1018.6 1019.4 0.0
04/06:00pm 2.8 -2.4 -2.7 67 2.0 WNW 15 24 8 13 1018.4 1019.2 0.0
04/05:30pm 2.9 -3.7 -3.0 65 2.1 WNW 22 30 12 16 1018.1 1019.0 0.0
04/05:00pm 3.5 -3.4 -2.7 64 2.3 W 24 35 13 19 1018.0 1018.8 0.0
04/04:38pm 4.4 -3.3 -3.1 58 2.7 WNW 28 46 15 25 1017.8 1018.6 0.0
04/04:30pm 5.0 -2.3 -2.6 58 2.8 WNW 26 35 14 19 1017.8 1018.6 0.0
04/04:00pm 5.7 -2.3 -2.6 55 3.1 WNW 30 41 16 22 1018.1 1019.0 0.0
04/03:30pm 6.2 -2.3 -3.2 51 3.5 WNW 32 41 17 22 1018.1 1019.0 0.0
04/03:00pm 7.4 -0.5 -1.8 52 3.6 WNW 30 39 16 21 1018.3 1019.1 0.0
04/02:30pm 7.1 -0.2 -2.6 50 3.7 WNW 26 37 14 20 1018.3 1019.1 0.0
04/02:00pm 7.5 1.1 -1.4 53 3.5 WNW 22 33 12 18 1018.6 1019.4 0.0
04/01:30pm 7.1 0.3 -2.1 52 3.5 NW 24 33 13 18 1018.8 1019.6 0.0
04/01:00pm 7.6 1.3 -1.1 54 3.4 WNW 22 35 12 19 1019.3 1020.1 0.0
04/12:30pm 7.1 1.8 -0.8 57 3.1 WNW 17 24 9 13 1019.9 1020.7 0.0
04/12:00pm 6.0 0.7 -0.5 63 2.6 W 17 22 9 12 1020.5 1021.3 0.0
04/11:30am 5.7 0.3 -1.7 59 2.8 NNW 17 26 9 14 1020.9 1021.8 0.0
04/11:00am 5.3 0.7 -0.7 65 2.3 NW 13 19 7 10 1021.6 1022.4 0.0
04/10:30am 4.3 0.1 -1.1 68 2.1 NW 11 15 6 8 1021.9 1022.7 0.0
04/10:00am 3.3 -0.8 -0.2 78 1.4 NNW 11 15 6 8 1022.1 1023.0 0.0
04/09:30am 2.3 -1.5 -0.6 81 1.1 NNW 9 15 5 8 1022.1 1023.0 0.0
04/09:00am 1.0 -2.8 -0.9 87 0.7 NNW 9 11 5 6 1022.0 1022.8 0.0
04/08:30am 0.4 -2.0 -0.4 94 0.3 N 2 7 1 4 1021.8 1022.6 0.0
04/08:00am -1.6 -4.6 -2.0 97 0.1 NNW 4 6 2 3 1021.6 1022.4 0.0
04/07:30am -4.8 -7.5 -5.5 95 0.0 CALM 0 0 0 0 1021.7 1022.5 0.0
04/07:00am -6.4 -10.4 -7.8 90 0.2 NNE 6 7 3 4 1021.6 1022.4 0.0
04/06:30am -5.6 -8.4 -6.8 91 0.1 CALM 0 0 0 0 1021.3 1022.2 0.0
04/06:00am -5.1 -7.8 -6.1 93 0.1 CALM 0 0 0 0 1021.2 1022.1 0.0
04/05:30am -4.7 -8.7 -5.8 92 0.2 NNE 7 7 4 4 1020.9 1021.8 0.0
04/05:00am -3.5 -7.4 -4.2 95 0.1 N 7 7 4 4 1020.8 1021.7 0.0
04/04:30am -3.7 -8.0 -4.4 95 0.1 N 9 11 5 6 1020.8 1021.7 0.0
04/04:00am -3.9 -7.8 -4.7 94 0.1 N 7 9 4 5 1020.6 1021.4 0.0
04/03:30am -4.2 -8.6 -5.6 90 0.3 N 9 9 5 5 1020.6 1021.4 0.0
04/03:00am -2.9 -7.4 -3.6 95 0.1 NNW 11 13 6 7 1020.7 1021.5 0.0
04/02:30am -3.3 -7.6 -4.4 92 0.2 NNW 9 11 5 6 1020.8 1021.7 0.0
04/02:00am -2.9 -5.4 -4.0 92 0.2 CALM 0 9 0 5 1021.0 1021.9 0.0
04/01:30am -2.4 -4.8 -3.5 92 0.3 CALM 0 0 0 0 1021.0 1021.9 0.0
04/01:00am -1.4 -4.2 -3.1 88 0.5 WNW 2 7 1 4 1021.1 1022.0 0.0
04/12:30am -0.7 -4.3 -2.0 91 0.4 WNW 7 11 4 6 1021.3 1022.2 0.0
04/12:00am -0.3 -2.9 -1.9 89 0.6 NW 2 7 1 4 1021.2 1022.1 0.0
 
Date/Time
EST
Temp
°C
App
Temp
°C
Dew
Point
Rel
Hum
%
Delta-T
°C
Wind Press
QNH
hPa
Press
MSL
hPa
Rain
since 9 am
mm
Dir
 
Spd
km/h
Gust
km/h
Spd
kts
Gust
kts
03/11:30pm 0.7 -3.2 -1.2 87 0.7 NW 9 13 5 7 1021.0 1021.9 0.0
03/11:00pm 1.3 -3.6 -0.5 88 0.7 WNW 15 19 8 10 1020.9 1021.8 0.0
03/10:30pm 1.5 -3.8 -0.3 88 0.7 WNW 17 20 9 11 1020.7 1021.5 0.0
03/10:00pm 1.8 -3.8 -0.1 87 0.7 WNW 19 22 10 12 1020.6 1021.4 0.0
03/09:30pm 2.3 -3.4 0.4 87 0.7 WNW 20 22 11 12 1020.5 1021.3 0.0
03/09:00pm 2.9 -2.8 0.5 84 0.9 WNW 20 30 11 16 1020.4 1021.2 0.0
03/08:30pm 3.4 -2.7 0.6 82 1.1 WNW 22 33 12 18 1019.9 1020.7 0.0
03/08:00pm 3.8 -3.4 0.5 79 1.3 WNW 28 35 15 19 1019.7 1020.6 0.0
03/07:30pm 4.1 -2.7 1.0 80 1.3 WNW 26 33 14 18 1019.2 1020.0 0.0
03/07:00pm 4.1 -1.4 1.6 84 1.0 WNW 20 33 11 18 1018.9 1019.7 0.0
03/06:30pm 4.4 -1.0 1.1 79 1.3 W 19 26 10 14 1018.6 1019.4 0.0
03/06:00pm 5.5 -1.9 1.6 76 1.6 W 30 41 16 22 1017.8 1018.6 0.0
03/05:30pm 5.8 -1.5 2.3 78 1.5 W 30 44 16 24 1017.3 1018.1 0.0
03/05:00pm 6.3 0.6 2.6 77 1.6 W 22 33 12 18 1017.2 1018.0 0.0
03/04:30pm 6.3 0.2 2.9 79 1.5 W 24 33 13 18 1016.8 1017.6 0.0
03/04:13pm 6.4 -1.1 3.2 80 1.4 W 32 43 17 23 1016.1 1016.9 0.0
03/04:00pm 6.3 -2.1 3.6 83 1.2 W 37 50 20 27 1015.8 1016.6 0.0
03/03:54pm 6.4 -2.3 3.9 84 1.1 W 39 50 21 27 1015.9 1016.7 0.0
03/03:30pm 7.4 -1.5 2.9 73 2.0 W 39 57 21 31 1015.7 1016.5 0.0
03/03:00pm 8.0 -0.3 2.3 67 2.5 W 35 54 19 29 1015.4 1016.1 0.0
03/02:30pm 7.9 -0.3 2.6 69 2.3 W 35 61 19 33 1014.7 1015.5 0.0
03/02:09pm 8.9 1.7 2.9 66 2.7 WNW 30 52 16 28 1014.7 1015.5 0.0
03/02:00pm 7.6 1.3 3.6 76 1.8 W 26 41 14 22 1014.9 1015.6 0.0
03/01:30pm 7.0 -1.9 2.9 75 1.8 W 39 61 21 33 1014.6 1015.4 0.0
03/01:27pm 7.1 -1.9 2.4 72 2.0 W 39 61 21 33 1014.6 1015.4 0.0
03/01:00pm 7.0 -0.7 2.5 73 1.9 W 32 48 17 26 1014.2 1015.0 0.0
03/12:30pm 8.0 -3.5 2.5 68 2.4 W 52 72 28 39 1013.8 1014.5 0.0
03/12:00pm 7.8 -3.6 2.7 70 2.2 WNW 52 74 28 40 1014.0 1014.7 0.0
03/11:30am 8.6 -2.4 3.0 68 2.5 WNW 50 69 27 37 1013.9 1014.6 0.0
03/11:00am 7.6 -3.1 2.5 70 2.2 WNW 48 67 26 36 1014.1 1014.9 0.0
03/10:30am 7.2 -4.8 1.7 68 2.3 WNW 54 72 29 39 1013.9 1014.6 0.0
03/10:00am 6.3 -6.3 1.4 71 2.0 WNW 57 78 31 42 1013.9 1014.6 0.0
03/09:30am 6.2 -5.3 2.1 75 1.7 WNW 52 74 28 40 1013.8 1014.5 0.0
03/09:28am 6.3 -5.2 2.2 75 1.7 WNW 52 74 28 40 1013.7 1014.4 0.0
03/09:26am 6.3 -4.8 2.2 75 1.7 WNW 50 67 27 36 1013.8 1014.5 0.0
03/09:20am 6.2 -4.5 2.3 76 1.7 WNW 48 67 26 36 1013.9 1014.6 0.0
03/09:00am 5.7 -4.0 3.0 83 1.2 WNW 43 59 23 32 1013.9 1014.6 1.8
03/08:50am 5.6 -4.6 3.1 84 1.1 WNW 46 65 25 35 1013.9 1014.6 1.8
03/08:47am 5.6 -5.1 2.8 82 1.2 WNW 48 65 26 35 1013.7 1014.4 1.8
03/08:30am 5.9 -5.2 2.4 78 1.5 WNW 50 70 27 38 1013.4 1014.1 1.8
03/08:21am 5.9 -4.9 2.0 76 1.6 WNW 48 70 26 38 1013.3 1014.0 1.8
03/08:16am 6.0 -5.2 2.1 76 1.6 WNW 50 65 27 35 1013.1 1013.9 1.8
03/08:00am 5.6 -5.9 2.4 80 1.4 WNW 52 72 28 39 1012.7 1013.4 1.8
03/07:41am 5.5 -6.0 2.5 81 1.3 WNW 52 72 28 39 1012.8 1013.6 1.8
03/07:37am 5.4 -6.4 2.6 82 1.2 WNW 54 72 29 39 1012.7 1013.4 1.8
03/07:30am 5.5 -6.8 2.2 79 1.4 WNW 56 72 30 39 1012.6 1013.3 1.8
03/07:00am 5.3 -6.6 2.1 80 1.3 WNW 54 74 29 40 1012.5 1013.2 1.8
03/06:30am 5.5 -6.0 2.5 81 1.3 WNW 52 76 28 41 1012.3 1013.0 1.8
03/06:00am 5.2 -6.4 1.9 79 1.4 WNW 52 72 28 39 1012.2 1012.9 1.8
03/05:30am 5.6 -6.0 1.7 76 1.6 WNW 52 78 28 42 1012.2 1012.9 1.8
03/05:00am 5.5 -6.5 1.8 77 1.5 WNW 54 74 29 40 1012.2 1012.9 1.8
03/04:30am 5.4 -6.6 1.5 76 1.6 WNW 54 74 29 40 1012.2 1012.9 1.8
03/04:00am 5.9 -6.7 1.1 71 2.0 WNW 57 78 31 42 1012.4 1013.1 1.8
03/03:30am 5.4 -7.1 0.6 71 1.9 WNW 56 74 30 40 1012.6 1013.3 1.8
03/03:00am 5.2 -5.1 0.4 71 1.9 WNW 44 65 24 35 1013.1 1013.9 1.8
03/02:37am 5.1 -4.6 0.3 71 1.9 WNW 41 61 22 33 1013.5 1014.2 1.8
03/02:30am 4.9 -4.5 0.1 71 1.9 WNW 39 54 21 29 1013.6 1014.3 1.8
03/02:00am 4.6 -4.4 0.0 72 1.8 WNW 37 54 20 29 1014.0 1014.7 1.8
03/01:30am 4.6 -4.4 0.0 72 1.8 WNW 37 50 20 27 1014.6 1015.4 1.8
03/01:00am 4.6 -2.7 -0.2 71 1.9 WNW 28 39 15 21 1015.1 1015.8 1.8
03/12:30am 4.5 -2.4 -0.1 72 1.8 NW 26 43 14 23 1015.4 1016.1 1.8
03/12:00am 4.2 -3.1 0.0 74 1.7 NW 28 35 15 19 1015.8 1016.6 1.8
 
Date/Time
EST
Temp
°C
App
Temp
°C
Dew
Point
Rel
Hum
%
Delta-T
°C
Wind Press
QNH
hPa
Press
MSL
hPa
Rain
since 9 am
mm
Dir
 
Spd
km/h
Gust
km/h
Spd
kts
Gust
kts
02/11:47pm 4.4 -2.9 0.0 73 1.7 WNW 28 46 15 25 1016.0 1016.8 1.8
02/11:30pm 4.2 -2.3 0.0 74 1.7 NW 24 35 13 19 1016.1 1016.9 1.8
02/11:00pm 4.3 -3.7 0.5 76 1.5 NW 32 44 17 24 1016.1 1016.9 1.8
02/10:30pm 4.5 -2.3 1.0 78 1.4 NW 26 39 14 21 1016.4 1017.2 1.8
02/10:00pm 4.5 -2.6 1.2 79 1.3 WNW 28 48 15 26 1016.7 1017.4 1.8
02/09:43pm 4.7 -3.3 1.9 82 1.2 WNW 33 52 18 28 1016.2 1017.0 1.8
02/09:30pm 4.9 -3.8 2.3 83 1.1 WNW 37 50 20 27 1016.1 1016.9 1.8
02/09:00pm 5.4 -3.6 2.2 80 1.3 WNW 39 57 21 31 1015.9 1016.7 1.8
02/08:37pm 5.5 -2.2 2.2 79 1.4 WNW 32 50 17 27 1015.6 1016.4 1.8
02/08:30pm 5.2 -2.6 1.9 79 1.4 WNW 32 43 17 23 1015.7 1016.5 1.8
02/08:00pm 5.7 -1.0 1.6 75 1.7 NW 26 37 14 20 1015.7 1016.5 1.8
02/07:30pm 6.2 -1.1 2.7 78 1.5 WNW 30 41 16 22 1015.7 1016.5 1.8
02/07:00pm 6.8 -1.3 3.4 79 1.5 WNW 35 48 19 26 1015.5 1016.3 1.8
02/06:57pm 6.7 -1.7 3.7 81 1.3 WNW 37 48 20 26 1015.5 1016.3 1.8
02/06:30pm 7.8 0.5 5.4 85 1.1 WNW 33 43 18 23 1015.2 1015.9 1.8
02/06:11pm 8.0 0.7 5.6 85 1.1 WNW 33 43 18 23 1014.7 1015.5 1.8
02/06:00pm 7.9 0.8 5.4 84 1.2 WNW 32 43 17 23 1014.4 1015.2 1.8
02/05:49pm 8.0 0.7 5.5 84 1.2 WNW 33 43 18 23 1014.3 1015.1 1.8
02/05:30pm 8.4 1.5 6.5 88 0.9 W 32 43 17 23 1014.1 1014.9 1.6
02/05:29pm 8.4 1.5 6.5 88 0.9 W 32 43 17 23 1014.1 1014.9 1.6
02/05:00pm 8.9 2.1 6.9 87 1.0 W 32 43 17 23 1013.9 1014.6 1.6
02/04:30pm 9.8 4.3 7.6 86 1.1 WNW 26 37 14 20 1013.0 1013.8 1.4
02/04:00pm 10.1 3.4 7.3 83 1.4 WNW 32 43 17 23 1013.3 1014.0 1.4
02/03:30pm 11.6 4.3 7.1 74 2.2 W 35 50 19 27 1012.4 1013.1 1.2
02/03:00pm 13.3 5.7 5.9 61 3.6 WNW 35 46 19 25 1011.9 1012.6 1.2
02/02:30pm 13.3 6.3 5.9 61 3.6 NW 32 46 17 25 1011.1 1011.8 1.2
02/02:14pm 13.3 4.5 5.5 59 3.8 WNW 41 59 22 32 1011.4 1012.1 1.2

Other Formats:

Comma delimited format used in spreadsheet applications
http://www.bom.gov.au/fwo/IDN60801/IDN60801.95716.axf

JavaScript Object Notation format (JSON) in row-major order
http://www.bom.gov.au/fwo/IDN60801/IDN60801.95716.json